createdAt,value
2022-11-28T00:00:13.662Z,10.20
2022-11-28T00:02:43.493Z,10.10
2022-11-28T00:05:13.478Z,10.10
2022-11-28T00:07:44.182Z,10.10
2022-11-28T00:10:13.906Z,10.10
2022-11-28T00:12:42.800Z,10.10
2022-11-28T00:15:13.179Z,10.10
2022-11-28T00:17:42.093Z,10.10
2022-11-28T00:20:11.462Z,10.10
2022-11-28T00:22:40.574Z,10.10
2022-11-28T00:25:11.263Z,10.10
2022-11-28T00:27:40.370Z,10.10
2022-11-28T00:30:10.503Z,10.10
2022-11-28T00:32:39.616Z,10.00
2022-11-28T00:35:09.031Z,10.00
2022-11-28T00:37:38.085Z,10.00
2022-11-28T00:40:08.435Z,10.00
2022-11-28T00:42:38.842Z,10.00
2022-11-28T00:45:08.873Z,10.00
2022-11-28T00:47:37.927Z,10.00
2022-11-28T00:50:08.211Z,10.00
2022-11-28T00:52:37.323Z,10.10
2022-11-28T00:55:06.727Z,10.10
2022-11-28T00:57:35.855Z,10.10
2022-11-28T01:00:08.374Z,10.10
2022-11-28T01:02:37.487Z,10.10
2022-11-28T01:05:07.374Z,10.10
2022-11-28T01:07:36.484Z,10.00
2022-11-28T01:10:06.136Z,10.00
2022-11-28T01:12:35.085Z,10.00
2022-11-28T01:15:06.217Z,10.00
2022-11-28T01:17:35.329Z,10.10
2022-11-28T01:20:04.851Z,10.10
2022-11-28T01:22:34.075Z,10.10
2022-11-28T01:25:03.347Z,10.10
2022-11-28T01:27:32.387Z,10.10
2022-11-28T01:30:01.600Z,10.10
2022-11-28T01:32:31.990Z,10.10
2022-11-28T01:35:00.952Z,10.10
2022-11-28T01:37:30.591Z,10.10
2022-11-28T01:39:59.578Z,10.00
2022-11-28T01:42:28.597Z,10.00
2022-11-28T01:45:16.616Z,10.00
2022-11-28T01:47:48.221Z,10.00
2022-11-28T01:50:17.807Z,10.00
2022-11-28T01:52:50.969Z,10.00
2022-11-28T01:55:23.301Z,10.00
2022-11-28T01:57:55.298Z,10.00
2022-11-28T02:00:25.271Z,10.00
2022-11-28T02:03:00.832Z,10.00
2022-11-28T02:05:30.006Z,10.00
2022-11-28T02:07:59.247Z,10.00
2022-11-28T02:10:31.874Z,10.00
2022-11-28T02:13:22.407Z,10.00
2022-11-28T02:16:26.399Z,10.00
2022-11-28T02:19:18.671Z,10.00
2022-11-28T02:21:58.880Z,10.00
2022-11-28T02:25:06.700Z,10.00
2022-11-28T02:28:29.781Z,10.00
2022-11-28T02:31:12.863Z,9.90
2022-11-28T02:33:47.236Z,9.90
2022-11-28T02:36:20.292Z,9.90
2022-11-28T02:38:59.076Z,9.90
2022-11-28T02:41:34.741Z,9.80
2022-11-28T02:44:14.993Z,9.80
2022-11-28T02:46:51.104Z,9.90
2022-11-28T02:49:25.358Z,9.90
2022-11-28T02:51:59.381Z,9.90
2022-11-28T02:54:31.869Z,9.90
2022-11-28T02:57:00.880Z,9.90
2022-11-28T02:59:46.624Z,9.90
2022-11-28T03:02:18.998Z,10.00
2022-11-28T03:04:58.743Z,10.00
2022-11-28T03:07:45.668Z,10.00
2022-11-28T03:10:24.827Z,10.10
2022-11-28T03:13:05.655Z,10.10
2022-11-28T03:15:45.665Z,10.10
2022-11-28T03:18:19.836Z,10.10
2022-11-28T03:20:56.196Z,10.10
2022-11-28T03:23:34.456Z,10.10
2022-11-28T03:26:10.924Z,10.10
2022-11-28T03:28:46.657Z,10.10
2022-11-28T03:31:18.303Z,10.00
2022-11-28T03:33:51.953Z,10.00
2022-11-28T03:36:26.781Z,10.00
2022-11-28T03:39:00.931Z,10.00
2022-11-28T03:41:34.349Z,9.90
2022-11-28T03:44:04.398Z,9.90
2022-11-28T03:46:38.205Z,9.90
2022-11-28T03:49:09.932Z,9.90
2022-11-28T03:51:46.582Z,9.90
2022-11-28T03:54:18.621Z,9.80
2022-11-28T03:56:58.618Z,9.80
2022-11-28T03:59:33.068Z,9.80
2022-11-28T04:02:07.870Z,9.70
2022-11-28T04:04:44.323Z,9.70
2022-11-28T04:07:24.315Z,9.60
2022-11-28T04:10:01.295Z,9.60
2022-11-28T04:12:41.124Z,9.60
2022-11-28T04:15:16.139Z,9.60
2022-11-28T04:17:52.450Z,9.60
2022-11-28T04:20:29.983Z,9.60
2022-11-28T04:23:06.041Z,9.70
2022-11-28T04:25:39.311Z,9.70
2022-11-28T04:28:13.370Z,9.70
2022-11-28T04:30:45.778Z,9.70
2022-11-28T04:33:17.310Z,9.70
2022-11-28T04:35:51.525Z,9.70
2022-11-28T04:38:23.959Z,9.80
2022-11-28T04:40:56.263Z,9.80
2022-11-28T04:43:30.727Z,9.80
2022-11-28T04:46:05.624Z,9.80
2022-11-28T04:48:35.423Z,9.80
2022-11-28T04:51:16.309Z,9.80
2022-11-28T04:53:51.844Z,9.80
2022-11-28T04:56:26.718Z,9.80
2022-11-28T04:58:55.708Z,9.80
2022-11-28T05:01:28.650Z,9.80
2022-11-28T05:03:58.338Z,9.80
2022-11-28T05:06:29.033Z,9.80
2022-11-28T05:08:59.632Z,9.80
2022-11-28T05:11:29.568Z,9.80
2022-11-28T05:13:58.622Z,9.80
2022-11-28T05:16:27.744Z,9.90
2022-11-28T05:18:56.875Z,9.90
2022-11-28T05:21:25.999Z,9.90
2022-11-28T05:23:54.984Z,9.90
2022-11-28T05:26:26.226Z,9.90
2022-11-28T05:28:54.997Z,9.90
2022-11-28T05:31:23.915Z,9.90
2022-11-28T05:33:52.933Z,10.00
2022-11-28T05:36:22.194Z,9.90
2022-11-28T05:38:51.613Z,9.90
2022-11-28T05:41:21.343Z,9.90
2022-11-28T05:43:52.021Z,9.80
2022-11-28T05:46:21.266Z,9.80
2022-11-28T05:48:50.461Z,9.80
2022-11-28T05:51:19.743Z,9.80
2022-11-28T05:53:48.899Z,9.80
2022-11-28T05:56:22.497Z,9.80
2022-11-28T05:58:55.706Z,9.80
2022-11-28T06:01:26.714Z,9.80
2022-11-28T06:03:59.955Z,9.70
2022-11-28T06:06:31.247Z,9.70
2022-11-28T06:09:00.951Z,9.60
2022-11-28T06:11:31.788Z,9.60
2022-11-28T06:14:03.147Z,9.60
2022-11-28T06:16:32.715Z,9.60
2022-11-28T06:19:03.736Z,9.60
2022-11-28T06:21:34.054Z,9.60
2022-11-28T06:24:03.126Z,9.50
2022-11-28T06:26:32.178Z,9.50
2022-11-28T06:29:02.566Z,9.50
2022-11-28T06:31:31.768Z,9.50
2022-11-28T06:34:00.886Z,9.50
2022-11-28T06:36:30.792Z,9.50
2022-11-28T06:38:59.754Z,9.50
2022-11-28T06:41:28.764Z,9.50
2022-11-28T06:43:59.966Z,9.50
2022-11-28T06:46:30.516Z,9.50
2022-11-28T06:48:59.510Z,9.50
2022-11-28T06:51:28.633Z,9.50
2022-11-28T06:53:57.639Z,9.50
2022-11-28T06:56:26.618Z,9.50
2022-11-28T06:58:56.693Z,9.50
2022-11-28T07:01:28.051Z,9.40
2022-11-28T07:03:59.053Z,9.50
2022-11-28T07:06:29.351Z,9.50
2022-11-28T07:08:59.213Z,9.50
2022-11-28T07:11:30.272Z,9.40
2022-11-28T07:14:01.587Z,9.40
2022-11-28T07:16:31.170Z,9.30
2022-11-28T07:19:01.765Z,9.30
2022-11-28T07:21:31.735Z,9.40
2022-11-28T07:24:01.570Z,9.30
2022-11-28T07:26:30.874Z,9.40
2022-11-28T07:29:00.115Z,9.40
2022-11-28T07:31:32.439Z,9.40
2022-11-28T07:34:04.500Z,9.50
2022-11-28T07:36:33.903Z,9.50
2022-11-28T07:39:05.179Z,9.50
2022-11-28T07:41:33.913Z,9.50
2022-11-28T07:44:03.749Z,9.50
2022-11-28T07:46:34.207Z,9.50
2022-11-28T07:49:05.558Z,9.60
2022-11-28T07:51:34.804Z,9.60
2022-11-28T07:54:05.487Z,9.60
2022-11-28T07:57:04.650Z,9.70
2022-11-28T07:59:25.829Z,9.60
2022-11-28T08:01:54.966Z,9.70
2022-11-28T08:04:25.587Z,9.70
2022-11-28T08:06:55.691Z,9.70
2022-11-28T08:09:24.921Z,9.70
2022-11-28T08:11:54.012Z,9.80
2022-11-28T08:14:23.125Z,9.80
2022-11-28T08:16:52.507Z,9.80
2022-11-28T08:19:24.738Z,9.80
2022-11-28T08:21:55.383Z,9.80
2022-11-28T08:24:24.376Z,9.80
2022-11-28T08:26:54.087Z,9.80
2022-11-28T08:29:23.413Z,9.80
2022-11-28T08:31:52.431Z,9.80
2022-11-28T08:34:21.505Z,9.80
2022-11-28T08:36:50.660Z,9.80
2022-11-28T08:39:25.061Z,9.80
2022-11-28T08:41:57.284Z,9.80
2022-11-28T08:44:30.837Z,9.80
2022-11-28T08:47:00.572Z,9.90
2022-11-28T08:49:29.749Z,9.90
2022-11-28T08:51:58.803Z,9.90
2022-11-28T08:54:29.221Z,9.90
2022-11-28T08:56:59.053Z,9.90
2022-11-28T08:59:28.113Z,10.00
2022-11-28T09:01:57.205Z,10.00
2022-11-28T09:04:26.274Z,10.00
2022-11-28T09:06:55.502Z,10.00
2022-11-28T09:09:27.078Z,10.00
2022-11-28T09:11:59.523Z,10.10
2022-11-28T09:14:28.609Z,10.10
2022-11-28T09:16:58.135Z,10.10
2022-11-28T09:19:27.416Z,10.10
2022-11-28T09:21:58.103Z,10.10
2022-11-28T09:24:27.306Z,10.10
2022-11-28T09:26:56.327Z,10.10
2022-11-28T09:29:28.388Z,10.10
2022-11-28T09:31:57.549Z,10.10
2022-11-28T09:34:27.403Z,10.10
2022-11-28T09:36:59.699Z,10.10
2022-11-28T09:39:44.014Z,10.20
2022-11-28T09:42:28.330Z,10.10
2022-11-28T09:45:01.983Z,10.20
2022-11-28T09:47:33.250Z,10.20
2022-11-28T09:50:03.133Z,10.20
2022-11-28T09:52:38.152Z,10.30
2022-11-28T09:55:15.961Z,10.30
2022-11-28T09:57:48.503Z,10.30
2022-11-28T10:00:22.596Z,10.30
2022-11-28T10:03:21.086Z,10.30
2022-11-28T10:05:59.789Z,10.30
2022-11-28T10:08:39.343Z,10.30
2022-11-28T10:11:21.016Z,10.30
2022-11-28T10:14:09.207Z,10.30
2022-11-28T10:16:49.393Z,10.30
2022-11-28T10:19:46.487Z,10.30
2022-11-28T10:22:17.464Z,10.40
2022-11-28T10:24:51.590Z,10.40
2022-11-28T10:27:26.784Z,10.40
2022-11-28T10:30:02.750Z,10.40
2022-11-28T10:32:37.900Z,10.40
2022-11-28T10:35:11.596Z,10.40
2022-11-28T10:37:41.109Z,10.40
2022-11-28T10:40:22.336Z,10.50
2022-11-28T10:42:57.832Z,10.60
2022-11-28T10:45:33.382Z,10.70
2022-11-28T10:48:41.140Z,10.70
2022-11-28T10:51:24.175Z,10.80
2022-11-28T10:54:05.512Z,10.80
2022-11-28T10:56:41.754Z,10.90
2022-11-28T10:59:21.866Z,10.90
2022-11-28T11:01:52.362Z,11.00
2022-11-28T11:04:26.719Z,11.00
2022-11-28T11:07:14.810Z,11.00
2022-11-28T11:09:47.031Z,11.00
2022-11-28T11:12:21.489Z,11.10
2022-11-28T11:14:50.477Z,11.20
2022-11-28T11:17:36.344Z,11.20
2022-11-28T11:20:28.084Z,11.30
2022-11-28T11:22:58.773Z,11.30
2022-11-28T11:25:29.346Z,11.30
2022-11-28T11:28:01.434Z,11.40
2022-11-28T11:30:32.812Z,11.40
2022-11-28T11:33:05.047Z,11.40
2022-11-28T11:35:38.244Z,11.40
2022-11-28T11:38:19.896Z,11.30
2022-11-28T11:40:49.747Z,11.30
2022-11-28T11:43:27.911Z,11.30
2022-11-28T11:46:08.252Z,11.30
2022-11-28T11:48:39.520Z,11.30
2022-11-28T11:51:21.777Z,11.40
2022-11-28T11:54:00.797Z,11.40
2022-11-28T11:56:32.668Z,11.50
2022-11-28T11:59:04.268Z,11.50
2022-11-28T12:01:34.804Z,11.50
2022-11-28T12:04:37.210Z,11.40
2022-11-28T12:07:03.247Z,11.40
2022-11-28T12:09:39.592Z,11.30
2022-11-28T12:12:15.354Z,11.20
2022-11-28T12:14:45.070Z,11.10
2022-11-28T12:20:32.157Z,11.00
2022-11-28T12:23:17.176Z,10.90
2022-11-28T12:25:51.988Z,10.90
2022-11-28T12:28:31.976Z,10.80
2022-11-28T12:31:12.932Z,10.80
2022-11-28T12:33:52.231Z,10.80
2022-11-28T12:36:30.003Z,10.90
2022-11-28T12:39:17.665Z,10.80
2022-11-28T12:42:18.146Z,10.80
2022-11-28T12:45:11.876Z,10.70
2022-11-28T12:47:48.322Z,10.70
2022-11-28T12:50:28.575Z,10.70
2022-11-28T12:53:11.306Z,10.70
2022-11-28T12:55:49.984Z,10.70
2022-11-28T12:58:25.312Z,10.70
2022-11-28T13:01:01.749Z,10.70
2022-11-28T13:03:41.672Z,10.70
2022-11-28T13:06:22.685Z,10.60
2022-11-28T13:09:06.643Z,10.60
2022-11-28T13:11:49.712Z,10.60
2022-11-28T13:14:30.339Z,10.60
2022-11-28T13:17:08.754Z,10.50
2022-11-28T13:19:46.215Z,10.50
2022-11-28T13:22:23.517Z,10.50
2022-11-28T13:25:01.811Z,10.60
2022-11-28T13:27:40.786Z,10.50
2022-11-28T13:30:22.331Z,10.50
2022-11-28T13:33:00.513Z,10.50
2022-11-28T13:35:30.524Z,10.50
2022-11-28T13:41:01.913Z,10.50
2022-11-28T13:43:46.474Z,10.50
2022-11-28T13:46:16.301Z,10.60
2022-11-28T13:49:14.322Z,10.60
2022-11-28T13:51:45.809Z,10.50
2022-11-28T13:54:45.912Z,10.50
2022-11-28T13:57:38.280Z,10.50
2022-11-28T14:00:24.921Z,10.50
2022-11-28T14:02:56.319Z,10.50
2022-11-28T14:05:35.438Z,10.50
2022-11-28T14:08:05.809Z,10.50
2022-11-28T14:11:15.653Z,10.50
2022-11-28T14:14:07.368Z,10.50
2022-11-28T14:16:52.272Z,10.50
2022-11-28T14:19:31.901Z,10.50
2022-11-28T14:22:15.282Z,10.50
2022-11-28T14:24:58.124Z,10.50
2022-11-28T14:27:31.685Z,10.50
2022-11-28T14:30:02.146Z,10.60
2022-11-28T14:32:40.349Z,10.60
2022-11-28T14:35:18.165Z,10.60
2022-11-28T14:37:54.012Z,10.70
2022-11-28T14:41:06.663Z,10.70
2022-11-28T14:43:38.321Z,10.70
2022-11-28T14:46:37.653Z,10.70
2022-11-28T14:49:22.802Z,10.70
2022-11-28T14:52:38.410Z,10.70
2022-11-28T14:55:20.654Z,10.70
2022-11-28T14:58:00.756Z,10.70
2022-11-28T15:00:34.146Z,10.70
2022-11-28T15:03:18.854Z,10.70
2022-11-28T15:05:52.067Z,10.70
2022-11-28T15:08:45.537Z,10.70
2022-11-28T15:11:58.723Z,10.70
2022-11-28T15:14:31.687Z,10.70
2022-11-28T15:17:05.128Z,10.70
2022-11-28T15:19:38.250Z,10.60
2022-11-28T15:22:30.781Z,10.50
2022-11-28T15:25:00.283Z,10.50
2022-11-28T15:27:30.618Z,10.50
2022-11-28T15:30:01.617Z,10.50
2022-11-28T15:32:33.634Z,10.40
2022-11-28T15:35:12.371Z,10.40
2022-11-28T15:37:48.913Z,10.40
2022-11-28T15:40:21.795Z,10.40
2022-11-28T15:42:51.420Z,10.30
2022-11-28T15:45:26.816Z,10.30
2022-11-28T15:47:57.927Z,10.30
2022-11-28T15:50:28.453Z,10.30
2022-11-28T15:53:00.868Z,10.30
2022-11-28T15:55:33.448Z,10.30
2022-11-28T15:58:13.388Z,10.30
2022-11-28T16:00:45.626Z,10.30
2022-11-28T16:03:16.841Z,10.20
2022-11-28T16:05:47.273Z,10.20
2022-11-28T16:08:26.333Z,10.20
2022-11-28T16:10:56.763Z,10.10
2022-11-28T16:13:25.936Z,10.10
2022-11-28T16:15:58.485Z,10.10
2022-11-28T16:18:29.987Z,10.10
2022-11-28T16:21:01.067Z,10.10
2022-11-28T16:23:35.563Z,10.00
2022-11-28T16:26:07.406Z,10.00
2022-11-28T16:28:38.231Z,10.00
2022-11-28T16:31:12.735Z,10.00
2022-11-28T16:33:43.433Z,10.00
2022-11-28T16:36:20.240Z,10.00
2022-11-28T16:38:52.463Z,9.90
2022-11-28T16:41:25.043Z,9.90
2022-11-28T16:44:00.754Z,9.90
2022-11-28T16:46:36.616Z,9.90
2022-11-28T16:49:07.189Z,9.90
2022-11-28T16:51:40.874Z,9.80
2022-11-28T16:54:35.162Z,9.80
2022-11-28T16:57:14.679Z,9.80
2022-11-28T16:59:44.691Z,9.80
2022-11-28T17:02:16.381Z,9.80
2022-11-28T17:04:46.098Z,9.80
2022-11-28T17:07:18.044Z,9.80
2022-11-28T17:09:49.935Z,9.80
2022-11-28T17:12:25.470Z,9.80
2022-11-28T17:14:55.485Z,9.70
2022-11-28T17:17:25.312Z,9.80
2022-11-28T17:19:54.274Z,9.80
2022-11-28T17:22:26.042Z,9.80
2022-11-28T17:25:00.501Z,9.80
2022-11-28T17:27:29.677Z,9.80
2022-11-28T17:29:58.765Z,9.80
2022-11-28T17:32:27.762Z,9.80
2022-11-28T17:34:56.797Z,9.70
2022-11-28T17:37:26.299Z,9.70
2022-11-28T17:40:13.961Z,9.80
2022-11-28T17:42:43.078Z,9.80
2022-11-28T17:45:15.690Z,9.80
2022-11-28T17:47:45.530Z,9.80
2022-11-28T17:50:14.817Z,9.80
2022-11-28T17:52:44.002Z,9.80
2022-11-28T17:55:14.505Z,9.80
2022-11-28T17:57:43.832Z,9.80
2022-11-28T18:00:16.930Z,9.80
2022-11-28T18:02:47.124Z,9.80
2022-11-28T18:05:16.921Z,9.80
2022-11-28T18:07:45.996Z,9.80
2022-11-28T18:10:17.004Z,9.80
2022-11-28T18:12:46.252Z,9.80
2022-11-28T18:15:15.473Z,9.80
2022-11-28T18:17:44.565Z,9.80
2022-11-28T18:20:15.143Z,9.90
2022-11-28T18:22:45.060Z,9.90
2022-11-28T18:25:14.592Z,9.90
2022-11-28T18:27:44.999Z,10.00
2022-11-28T18:30:16.018Z,10.00
2022-11-28T18:32:45.124Z,10.00
2022-11-28T18:35:14.716Z,10.10
2022-11-28T18:37:43.905Z,10.10
2022-11-28T18:40:13.614Z,10.10
2022-11-28T18:42:44.650Z,10.10
2022-11-28T18:45:14.057Z,10.10
2022-11-28T18:47:43.290Z,10.10
2022-11-28T18:50:13.242Z,10.20
2022-11-28T18:52:42.748Z,10.10
2022-11-28T18:55:11.872Z,10.10
2022-11-28T18:57:41.549Z,10.20
2022-11-28T19:00:13.676Z,10.10
2022-11-28T19:02:42.794Z,10.20
2022-11-28T19:05:12.779Z,10.20
2022-11-28T19:07:41.808Z,10.20
2022-11-28T19:10:12.195Z,10.20
2022-11-28T19:12:41.615Z,10.20
2022-11-28T19:15:12.622Z,10.20
2022-11-28T19:17:41.825Z,10.20
2022-11-28T19:20:12.187Z,10.20
2022-11-28T19:22:41.356Z,10.20
2022-11-28T19:25:11.174Z,10.20
2022-11-28T19:27:40.190Z,10.20
2022-11-28T19:30:11.819Z,10.20
2022-11-28T19:32:41.202Z,10.10
2022-11-28T19:35:11.563Z,10.10
2022-11-28T19:37:41.535Z,10.10
2022-11-28T19:40:11.257Z,10.10
2022-11-28T19:42:40.766Z,10.10
2022-11-28T19:45:12.432Z,10.10
2022-11-28T19:47:42.407Z,10.10
2022-11-28T19:50:12.117Z,10.00
2022-11-28T19:52:41.080Z,10.00
2022-11-28T19:55:10.513Z,10.00
2022-11-28T19:57:39.810Z,10.00
2022-11-28T20:00:10.247Z,10.00
2022-11-28T20:02:44.392Z,10.00
2022-11-28T20:05:13.421Z,10.00
2022-11-28T20:07:42.555Z,10.00
2022-11-28T20:10:11.680Z,10.00
2022-11-28T20:12:42.162Z,9.90
2022-11-28T20:15:16.725Z,9.90
2022-11-28T20:17:49.576Z,9.90
2022-11-28T20:20:19.902Z,9.90
2022-11-28T20:22:50.580Z,9.90
2022-11-28T20:25:21.143Z,9.90
2022-11-28T20:27:53.273Z,9.90
2022-11-28T20:30:22.899Z,9.90
2022-11-28T20:32:54.919Z,9.80
2022-11-28T20:35:24.780Z,9.80
2022-11-28T20:37:53.879Z,9.80
2022-11-28T20:40:22.953Z,9.80
2022-11-28T20:42:51.940Z,9.80
2022-11-28T20:45:20.992Z,9.80
2022-11-28T20:47:50.243Z,9.80
2022-11-28T20:50:20.841Z,9.80
2022-11-28T20:52:49.941Z,9.80
2022-11-28T20:55:19.430Z,9.80
2022-11-28T20:57:48.508Z,9.80
2022-11-28T21:00:21.236Z,9.80
2022-11-28T21:02:54.187Z,9.70
2022-11-28T21:05:24.592Z,9.70
2022-11-28T21:07:53.795Z,9.70
2022-11-28T21:10:22.925Z,9.70
2022-11-28T21:12:51.942Z,9.70
2022-11-28T21:15:21.013Z,9.80
2022-11-28T21:17:50.054Z,9.70
2022-11-28T21:20:19.295Z,9.70
2022-11-28T21:22:49.756Z,9.70
2022-11-28T21:25:18.922Z,9.70
2022-11-28T21:27:48.358Z,9.70
2022-11-28T21:30:17.706Z,9.70
2022-11-28T21:32:47.580Z,9.80
2022-11-28T21:35:16.783Z,9.70
2022-11-28T21:37:45.803Z,9.70
2022-11-28T21:40:16.693Z,9.70
2022-11-28T21:42:45.686Z,9.80
2022-11-28T21:45:14.858Z,9.70
2022-11-28T21:47:44.319Z,9.70
2022-11-28T21:50:14.981Z,9.70
2022-11-28T21:52:44.189Z,9.70
2022-11-28T21:55:13.263Z,9.70
2022-11-28T21:57:45.226Z,9.70
2022-11-28T22:00:31.673Z,9.70
2022-11-28T22:03:10.904Z,9.70
2022-11-28T22:05:43.628Z,9.70
2022-11-28T22:08:12.938Z,9.70
2022-11-28T22:10:41.958Z,9.70
2022-11-28T22:13:12.353Z,9.70
2022-11-28T22:15:42.952Z,9.70
2022-11-28T22:18:12.635Z,9.70
2022-11-28T22:20:43.612Z,9.70
2022-11-28T22:23:14.369Z,9.70
2022-11-28T22:25:51.885Z,9.70
2022-11-28T22:28:22.532Z,9.70
2022-11-28T22:30:51.574Z,9.70
2022-11-28T22:33:20.778Z,9.70
2022-11-28T22:35:50.625Z,9.70
2022-11-28T22:38:19.639Z,9.70
2022-11-28T22:40:48.740Z,9.70
2022-11-28T22:43:18.105Z,9.70
2022-11-28T22:45:56.818Z,9.70
2022-11-28T22:48:26.085Z,9.70
2022-11-28T22:50:56.300Z,9.70
2022-11-28T22:53:25.316Z,9.70
2022-11-28T22:55:54.697Z,9.70
2022-11-28T22:58:23.753Z,9.70
2022-11-28T23:00:54.201Z,9.70
2022-11-28T23:03:23.630Z,9.70
2022-11-28T23:05:52.689Z,9.70
2022-11-28T23:08:21.923Z,9.60
2022-11-28T23:10:50.938Z,9.60
2022-11-28T23:13:19.920Z,9.60
2022-11-28T23:15:52.787Z,9.60
2022-11-28T23:18:23.448Z,9.60
2022-11-28T23:20:52.420Z,9.60
2022-11-28T23:23:21.616Z,9.70
2022-11-28T23:25:50.614Z,9.70
2022-11-28T23:28:19.893Z,9.70
2022-11-28T23:30:49.073Z,9.80
2022-11-28T23:33:18.134Z,9.90
2022-11-28T23:35:48.769Z,9.90
2022-11-28T23:38:18.555Z,9.90
2022-11-28T23:40:47.600Z,10.00
2022-11-28T23:43:19.619Z,10.00
2022-11-28T23:45:48.692Z,10.00
2022-11-28T23:48:18.556Z,10.00
2022-11-28T23:50:49.112Z,10.00
2022-11-28T23:53:18.094Z,10.00
2022-11-28T23:55:47.115Z,10.00
2022-11-28T23:58:16.850Z,10.00
